Time;durP1;ratioP1;P1;durP2;ratioP2;P2;SDS_P1;SDS_P2;PMS_P1;PMS_P2;Temp;Humidity;BMP_temperature;BMP_pressure;BME280_temperature;BME280_humidity;BME280_pressure;Samples;Min_cycle;Max_cycle;Signal;HPM_P1;HPM_P2
2021/12/21 00:00:57;;;;;;;24.52;15.05;;;;;;;;;;5020914;28;20045;-80
2021/12/21 00:03:24;;;;;;;23.33;14.18;;;;;;;;;;5015455;28;20383;-78
2021/12/21 00:05:50;;;;;;;24.05;14.57;;;;;;;;;;4999267;28;20045;-77
2021/12/21 00:08:17;;;;;;;22.08;14.07;;;;;;;;;;5018372;28;20376;-74
2021/12/21 00:10:47;;;;;;;24.73;14.52;;;;;;;;;;5020279;28;20148;-77
2021/12/21 00:14:12;;;;;;;22.42;14.85;;;;;;;;;;5014043;28;20061;-75
2021/12/21 00:18:40;;;;;;;21.25;13.77;;;;;;;;;;5015031;28;20068;-77
2021/12/21 00:21:43;;;;;;;23.17;13.80;;;;;;;;;;4999616;28;20125;-77
2021/12/21 00:24:09;;;;;;;21.50;13.88;;;;;;;;;;5018989;28;20152;-77
2021/12/21 00:26:36;;;;;;;21.55;13.10;;;;;;;;;;4996097;28;20501;-77
2021/12/21 00:29:03;;;;;;;20.23;13.30;;;;;;;;;;5015965;28;20057;-79
2021/12/21 00:31:32;;;;;;;21.40;12.70;;;;;;;;;;4995770;28;20517;-79
2021/12/21 00:33:59;;;;;;;25.45;13.65;;;;;;;;;;5021081;28;20053;-78
2021/12/21 00:36:28;;;;;;;23.25;12.88;;;;;;;;;;5015952;28;20069;-77
2021/12/21 00:38:57;;;;;;;26.77;13.10;;;;;;;;;;4996773;28;20059;-77
2021/12/21 00:41:27;;;;;;;18.55;11.00;;;;;;;;;;5012744;28;20054;-78
2021/12/21 00:43:53;;;;;;;22.00;9.77;;;;;;;;;;4985888;28;20065;-79
2021/12/21 00:46:20;;;;;;;18.17;9.93;;;;;;;;;;5020902;28;20087;-76
2021/12/21 00:48:52;;;;;;;20.42;9.07;;;;;;;;;;5017702;28;20065;-78
2021/12/21 00:51:21;;;;;;;18.92;8.38;;;;;;;;;;4997273;28;20756;-78
2021/12/21 00:53:48;;;;;;;16.10;8.18;;;;;;;;;;5012368;28;21094;-73
2021/12/21 00:56:14;;;;;;;18.95;7.80;;;;;;;;;;5009692;28;20076;-74
2021/12/21 00:58:41;;;;;;;16.60;7.63;;;;;;;;;;4991067;28;20065;-73
2021/12/21 01:01:08;;;;;;;16.50;7.35;;;;;;;;;;4992081;28;20046;-77
2021/12/21 01:03:37;;;;;;;20.65;7.32;;;;;;;;;;4975641;28;20371;-76
2021/12/21 01:06:14;;;;;;;16.88;6.82;;;;;;;;;;5008529;28;20045;-74
2021/12/21 01:11:33;;;;;;;15.32;7.38;;;;;;;;;;4989350;28;20064;-78
2021/12/21 01:16:46;;;;;;;15.63;6.50;;;;;;;;;;5000031;28;20438;-78
2021/12/21 01:19:19;;;;;;;11.32;6.32;;;;;;;;;;4987023;28;20892;-75
2021/12/21 01:22:04;;;;;;;13.02;6.05;;;;;;;;;;5005731;28;20053;-76
2021/12/21 01:24:44;;;;;;;10.97;5.73;;;;;;;;;;4975752;28;20144;-79
2021/12/21 01:30:11;;;;;;;13.43;6.35;;;;;;;;;;5000945;28;20383;-76
2021/12/21 01:32:54;;;;;;;14.93;6.00;;;;;;;;;;4999842;28;20045;-77
2021/12/21 01:35:35;;;;;;;17.75;5.95;;;;;;;;;;4972358;28;21344;-78
2021/12/21 01:38:10;;;;;;;13.43;5.55;;;;;;;;;;4988920;28;20049;-75
2021/12/21 01:43:24;;;;;;;18.15;5.80;;;;;;;;;;5007797;28;20656;-77
2021/12/21 01:51:23;;;;;;;13.65;4.90;;;;;;;;;;5002988;28;20130;-76
2021/12/21 01:53:51;;;;;;;12.40;5.40;;;;;;;;;;5015075;28;20050;-76
2021/12/21 01:56:20;;;;;;;15.27;4.68;;;;;;;;;;5018839;28;20054;-76
2021/12/21 01:58:46;;;;;;;19.08;4.85;;;;;;;;;;4993107;28;20176;-77
2021/12/21 02:01:17;;;;;;;12.65;5.25;;;;;;;;;;4983846;28;20150;-78
2021/12/21 02:03:47;;;;;;;11.48;4.60;;;;;;;;;;5004763;28;20536;-77
2021/12/21 02:06:17;;;;;;;7.47;4.15;;;;;;;;;;4991863;28;20667;-76
2021/12/21 02:08:45;;;;;;;9.63;4.80;;;;;;;;;;4985627;28;20105;-76
2021/12/21 02:11:11;;;;;;;12.43;4.78;;;;;;;;;;5002266;28;20645;-77
2021/12/21 02:13:43;;;;;;;10.10;4.72;;;;;;;;;;5002572;28;20053;-77
2021/12/21 02:16:09;;;;;;;9.77;4.28;;;;;;;;;;4986705;28;20563;-77
2021/12/21 02:21:25;;;;;;;9.50;4.82;;;;;;;;;;4990792;28;20739;-78
2021/12/21 02:23:59;;;;;;;11.85;4.45;;;;;;;;;;5000399;28;20139;-77
2021/12/21 02:31:45;;;;;;;10.20;4.15;;;;;;;;;;4999810;28;20060;-75
2021/12/21 02:34:12;;;;;;;10.85;4.95;;;;;;;;;;4975379;28;20442;-76
2021/12/21 02:36:40;;;;;;;10.40;4.40;;;;;;;;;;5005483;28;20080;-75
2021/12/21 02:39:07;;;;;;;10.98;4.35;;;;;;;;;;4989249;28;20041;-76
2021/12/21 02:41:35;;;;;;;15.75;4.80;;;;;;;;;;4983709;28;20621;-76
2021/12/21 02:44:02;;;;;;;9.93;4.78;;;;;;;;;;5004853;28;20243;-78
2021/12/21 02:46:29;;;;;;;9.85;4.43;;;;;;;;;;4987741;28;20447;-77
2021/12/21 02:48:55;;;;;;;11.88;4.40;;;;;;;;;;4986171;28;20132;-76
2021/12/21 02:51:23;;;;;;;7.97;4.28;;;;;;;;;;4966228;28;20084;-77
2021/12/21 02:53:49;;;;;;;13.38;4.35;;;;;;;;;;4985516;28;20832;-75
2021/12/21 02:56:16;;;;;;;10.80;3.90;;;;;;;;;;5006655;28;20050;-74
2021/12/21 02:58:42;;;;;;;16.45;4.53;;;;;;;;;;4989627;28;20510;-75
2021/12/21 03:01:10;;;;;;;8.68;3.78;;;;;;;;;;5004824;28;20045;-75
2021/12/21 03:03:37;;;;;;;15.05;3.88;;;;;;;;;;5004779;28;20411;-75
2021/12/21 03:06:08;;;;;;;8.80;4.43;;;;;;;;;;4986717;28;20058;-77
2021/12/21 03:08:43;;;;;;;10.23;4.18;;;;;;;;;;4990954;28;20041;-75
2021/12/21 03:11:25;;;;;;;11.50;4.50;;;;;;;;;;4988894;28;20051;-77
2021/12/21 03:14:03;;;;;;;11.43;4.30;;;;;;;;;;4978354;28;20061;-77
2021/12/21 03:16:37;;;;;;;10.00;3.88;;;;;;;;;;5010543;28;20069;-79
2021/12/21 03:19:08;;;;;;;11.05;4.00;;;;;;;;;;4992751;28;20078;-74
2021/12/21 03:21:36;;;;;;;9.43;4.38;;;;;;;;;;5003571;28;20571;-76
2021/12/21 03:24:04;;;;;;;12.25;4.60;;;;;;;;;;4986305;28;20049;-76
2021/12/21 03:26:31;;;;;;;10.70;4.07;;;;;;;;;;5007999;28;20084;-78
2021/12/21 03:28:57;;;;;;;11.52;3.80;;;;;;;;;;5014665;28;20064;-77
2021/12/21 03:31:23;;;;;;;8.25;4.05;;;;;;;;;;5005277;28;20045;-76
2021/12/21 03:33:50;;;;;;;11.15;4.00;;;;;;;;;;5015054;28;20695;-76
2021/12/21 03:36:18;;;;;;;11.80;4.25;;;;;;;;;;5031753;28;20034;-76
2021/12/21 03:38:52;;;;;;;12.00;4.25;;;;;;;;;;5002531;28;20033;-76
2021/12/21 03:41:21;;;;;;;14.23;4.50;;;;;;;;;;4992932;28;20093;-76
2021/12/21 03:43:47;;;;;;;11.23;4.20;;;;;;;;;;4970921;28;20693;-75
2021/12/21 03:46:15;;;;;;;8.63;3.97;;;;;;;;;;4988208;28;21332;-76
2021/12/21 03:48:46;;;;;;;10.32;4.05;;;;;;;;;;4989737;28;20059;-75
2021/12/21 03:51:14;;;;;;;12.40;4.28;;;;;;;;;;5006360;28;20147;-76
2021/12/21 03:53:41;;;;;;;12.52;4.63;;;;;;;;;;4990334;28;20154;-77
2021/12/21 03:58:36;;;;;;;12.38;4.05;;;;;;;;;;4997370;28;20096;-77
2021/12/21 04:01:03;;;;;;;13.88;4.00;;;;;;;;;;4979206;28;20049;-76
2021/12/21 04:03:29;;;;;;;10.73;4.50;;;;;;;;;;4989611;28;20265;-77
2021/12/21 04:05:55;;;;;;;17.00;4.63;;;;;;;;;;4992318;28;20624;-77
2021/12/21 04:08:22;;;;;;;13.50;4.28;;;;;;;;;;5008967;28;20052;-77
2021/12/21 04:10:48;;;;;;;10.70;4.22;;;;;;;;;;5013725;28;20057;-76
2021/12/21 04:13:14;;;;;;;9.48;4.13;;;;;;;;;;4988856;28;20556;-75
2021/12/21 04:15:44;;;;;;;13.40;3.92;;;;;;;;;;5006103;28;20061;-74
2021/12/21 04:18:11;;;;;;;12.93;4.43;;;;;;;;;;4995901;28;20057;-75
2021/12/21 04:20:39;;;;;;;11.30;3.88;;;;;;;;;;5015269;28;20096;-76
2021/12/21 04:23:06;;;;;;;11.68;5.07;;;;;;;;;;4998793;28;20049;-76
2021/12/21 04:25:34;;;;;;;13.00;4.28;;;;;;;;;;5009544;28;20472;-77
2021/12/21 04:28:01;;;;;;;13.23;4.00;;;;;;;;;;5007629;28;20045;-78
2021/12/21 04:30:27;;;;;;;11.40;4.45;;;;;;;;;;4989870;28;20199;-77
2021/12/21 04:32:54;;;;;;;13.13;4.32;;;;;;;;;;5000334;28;20072;-74
2021/12/21 04:35:20;;;;;;;11.98;4.32;;;;;;;;;;5008725;28;20144;-76
2021/12/21 04:37:59;;;;;;;12.13;3.70;;;;;;;;;;5015075;28;20132;-75
2021/12/21 04:40:38;;;;;;;13.43;3.90;;;;;;;;;;4974792;28;20407;-77
2021/12/21 04:43:05;;;;;;;11.60;4.38;;;;;;;;;;5007242;28;20132;-75
2021/12/21 04:45:32;;;;;;;16.08;4.30;;;;;;;;;;4993232;28;20503;-76
2021/12/21 04:48:00;;;;;;;12.57;4.68;;;;;;;;;;4991037;28;20041;-76
2021/12/21 04:50:26;;;;;;;12.23;4.68;;;;;;;;;;4989294;28;20053;-77
2021/12/21 04:52:53;;;;;;;16.75;4.88;;;;;;;;;;4983369;28;20049;-75
2021/12/21 04:55:19;;;;;;;11.35;4.53;;;;;;;;;;4986735;28;20485;-76
2021/12/21 04:57:45;;;;;;;11.68;4.50;;;;;;;;;;4989439;28;20191;-74
2021/12/21 05:00:12;;;;;;;12.05;4.57;;;;;;;;;;5006063;28;20771;-76
2021/12/21 05:02:38;;;;;;;7.50;4.00;;;;;;;;;;4981033;28;20124;-77
2021/12/21 05:05:05;;;;;;;11.60;4.20;;;;;;;;;;5004321;28;20068;-76
2021/12/21 05:07:34;;;;;;;12.57;4.00;;;;;;;;;;5006532;28;20042;-75
2021/12/21 05:10:02;;;;;;;16.20;4.47;;;;;;;;;;4968369;28;20049;-76
2021/12/21 05:12:29;;;;;;;15.13;4.32;;;;;;;;;;5001467;28;20052;-76
2021/12/21 05:14:56;;;;;;;16.70;4.40;;;;;;;;;;5006418;28;21105;-76
2021/12/21 05:17:23;;;;;;;13.65;4.18;;;;;;;;;;4987524;28;20539;-77
2021/12/21 05:19:49;;;;;;;12.07;5.07;;;;;;;;;;4984886;28;20045;-76
2021/12/21 05:22:16;;;;;;;14.70;4.80;;;;;;;;;;5001836;28;20128;-76
2021/12/21 05:24:43;;;;;;;9.52;3.95;;;;;;;;;;4967283;28;20050;-75
2021/12/21 05:27:10;;;;;;;16.58;4.10;;;;;;;;;;4999868;28;20099;-76
2021/12/21 05:29:37;;;;;;;12.65;4.40;;;;;;;;;;4984864;28;20089;-77
2021/12/21 05:32:05;;;;;;;18.85;4.00;;;;;;;;;;4998397;28;20045;-76
2021/12/21 05:34:33;;;;;;;24.63;4.40;;;;;;;;;;4985990;28;20073;-77
2021/12/21 05:37:00;;;;;;;14.80;4.53;;;;;;;;;;4979876;28;20050;-78
2021/12/21 05:39:38;;;;;;;18.95;5.20;;;;;;;;;;5002681;28;20052;-76
2021/12/21 05:42:05;;;;;;;12.80;4.30;;;;;;;;;;4997924;28;20491;-77
2021/12/21 05:44:32;;;;;;;8.93;3.92;;;;;;;;;;4967044;28;20129;-76
2021/12/21 05:46:58;;;;;;;15.88;4.28;;;;;;;;;;5002251;28;20506;-77
2021/12/21 05:49:25;;;;;;;15.23;4.72;;;;;;;;;;4972513;28;20399;-77
2021/12/21 05:51:52;;;;;;;11.32;3.97;;;;;;;;;;5002008;28;20158;-77
2021/12/21 05:54:21;;;;;;;17.08;4.40;;;;;;;;;;4980666;28;20058;-76
2021/12/21 05:56:48;;;;;;;14.02;4.80;;;;;;;;;;5002049;28;20493;-77
2021/12/21 05:59:14;;;;;;;16.77;4.78;;;;;;;;;;4974013;28;20057;-78
2021/12/21 06:01:40;;;;;;;17.98;4.53;;;;;;;;;;5003806;28;20053;-77
2021/12/21 06:04:06;;;;;;;13.65;3.95;;;;;;;;;;4990326;28;20550;-77
2021/12/21 06:06:34;;;;;;;14.45;4.53;;;;;;;;;;5007745;28;20083;-76
2021/12/21 06:09:06;;;;;;;14.77;4.18;;;;;;;;;;4986067;28;20371;-76
2021/12/21 06:11:35;;;;;;;18.02;4.60;;;;;;;;;;4969786;28;20050;-76
2021/12/21 06:14:21;;;;;;;14.80;4.75;;;;;;;;;;4973326;28;20876;-77
2021/12/21 06:27:46;;;;;;;12.93;4.85;;;;;;;;;;4995000;28;20241;-70
2021/12/21 06:30:13;;;;;;;18.65;4.97;;;;;;;;;;5007486;28;20366;-67
2021/12/21 06:32:39;;;;;;;12.88;4.70;;;;;;;;;;4985095;28;20160;-74
2021/12/21 06:35:06;;;;;;;15.02;5.50;;;;;;;;;;4989371;28;20061;-69
2021/12/21 06:37:32;;;;;;;20.85;5.40;;;;;;;;;;5011949;28;20041;-72
2021/12/21 06:39:59;;;;;;;14.88;4.65;;;;;;;;;;5010821;28;20076;-75
2021/12/21 06:42:27;;;;;;;22.27;5.38;;;;;;;;;;4992173;28;20062;-76
2021/12/21 06:44:57;;;;;;;15.50;4.40;;;;;;;;;;5012530;28;20049;-78
2021/12/21 06:52:53;;;;;;;16.35;4.50;;;;;;;;;;5009047;28;20167;-71
2021/12/21 06:55:20;;;;;;;18.95;4.40;;;;;;;;;;5017370;28;20144;-72
2021/12/21 06:57:46;;;;;;;11.80;4.60;;;;;;;;;;5013744;28;20450;-72
2021/12/21 07:00:16;;;;;;;18.92;4.55;;;;;;;;;;4977947;28;20057;-70
2021/12/21 07:02:43;;;;;;;14.95;4.65;;;;;;;;;;5009217;28;20106;-74
2021/12/21 07:05:09;;;;;;;12.48;4.88;;;;;;;;;;5010570;28;20041;-70
2021/12/21 07:07:36;;;;;;;20.13;4.55;;;;;;;;;;5013509;28;20096;-69
2021/12/21 07:10:07;;;;;;;21.23;4.50;;;;;;;;;;4983108;28;20049;-75
2021/12/21 07:20:27;;;;;;;14.88;4.80;;;;;;;;;;4990822;28;20058;-72
2021/12/21 07:22:54;;;;;;;18.60;4.57;;;;;;;;;;4987649;28;20359;-80
2021/12/21 07:25:20;;;;;;;16.25;4.55;;;;;;;;;;5005484;28;20049;-67
2021/12/21 07:27:46;;;;;;;15.52;4.53;;;;;;;;;;4988839;28;20057;-75
2021/12/21 07:30:13;;;;;;;18.95;4.97;;;;;;;;;;5005705;28;20967;-74
2021/12/21 07:32:39;;;;;;;14.15;5.00;;;;;;;;;;4998794;28;20049;-71
2021/12/21 07:35:06;;;;;;;16.15;4.68;;;;;;;;;;4999563;28;20118;-74
2021/12/21 07:37:32;;;;;;;18.17;5.03;;;;;;;;;;4977622;28;20099;-69
2021/12/21 07:39:58;;;;;;;16.50;4.38;;;;;;;;;;4985126;28;20625;-72
2021/12/21 07:42:24;;;;;;;11.18;4.72;;;;;;;;;;4999980;28;20375;-71
2021/12/21 07:44:51;;;;;;;23.83;4.22;;;;;;;;;;4988205;28;20499;-70
2021/12/21 07:47:17;;;;;;;12.85;4.38;;;;;;;;;;5009165;28;20065;-73
2021/12/21 07:49:43;;;;;;;17.85;5.45;;;;;;;;;;5013380;28;20057;-70
2021/12/21 07:52:11;;;;;;;23.13;5.38;;;;;;;;;;4992184;28;20061;-72
2021/12/21 07:54:37;;;;;;;33.05;4.88;;;;;;;;;;4993296;28;20054;-70
2021/12/21 07:57:06;;;;;;;18.58;4.93;;;;;;;;;;5010075;28;20061;-74
2021/12/21 07:59:34;;;;;;;20.50;4.78;;;;;;;;;;4993215;28;20041;-72
2021/12/21 08:02:00;;;;;;;16.88;4.63;;;;;;;;;;5007037;28;20052;-71
2021/12/21 08:04:28;;;;;;;14.48;4.30;;;;;;;;;;4978177;28;20110;-73
2021/12/21 08:06:59;;;;;;;15.13;4.97;;;;;;;;;;5012834;28;20041;-77
2021/12/21 08:09:32;;;;;;;19.98;4.70;;;;;;;;;;4990936;28;21144;-72
2021/12/21 08:12:13;;;;;;;15.23;4.53;;;;;;;;;;5004479;28;20056;-74
2021/12/21 08:14:40;;;;;;;21.27;5.25;;;;;;;;;;4972793;28;20506;-66
2021/12/21 08:17:07;;;;;;;16.80;4.60;;;;;;;;;;4994991;28;20057;-68
2021/12/21 08:19:33;;;;;;;14.35;4.60;;;;;;;;;;5013606;28;20060;-72
2021/12/21 08:21:59;;;;;;;20.13;4.78;;;;;;;;;;4990571;28;20041;-72
2021/12/21 08:24:26;;;;;;;15.23;4.22;;;;;;;;;;4994633;28;20057;-75
2021/12/21 08:26:52;;;;;;;15.30;5.30;;;;;;;;;;4995889;28;20061;-75
2021/12/21 08:29:18;;;;;;;16.27;5.30;;;;;;;;;;5013169;28;20179;-71
2021/12/21 08:31:46;;;;;;;14.35;4.93;;;;;;;;;;5011511;28;20046;-71
2021/12/21 08:34:13;;;;;;;15.77;4.95;;;;;;;;;;4997029;28;20049;-71
2021/12/21 08:36:39;;;;;;;19.92;4.60;;;;;;;;;;5014679;28;20364;-73
2021/12/21 08:39:07;;;;;;;17.90;4.28;;;;;;;;;;5017547;28;20119;-70
2021/12/21 08:41:39;;;;;;;19.05;4.45;;;;;;;;;;5014605;28;20053;-77
2021/12/21 08:44:06;;;;;;;13.93;4.40;;;;;;;;;;5000935;28;20135;-74
2021/12/21 08:46:32;;;;;;;15.07;5.68;;;;;;;;;;5011450;28;20607;-72
2021/12/21 08:48:59;;;;;;;18.08;5.10;;;;;;;;;;4997384;28;20063;-79
2021/12/21 08:51:25;;;;;;;18.20;4.97;;;;;;;;;;5006760;28;20691;-73
2021/12/21 08:53:51;;;;;;;17.42;5.10;;;;;;;;;;5010362;28;20062;-72
2021/12/21 08:56:19;;;;;;;20.73;5.50;;;;;;;;;;5009710;28;20096;-75
2021/12/21 08:58:45;;;;;;;13.93;4.70;;;;;;;;;;4976593;28;20049;-70
2021/12/21 09:01:11;;;;;;;14.98;4.57;;;;;;;;;;5008901;28;20983;-72
2021/12/21 09:03:39;;;;;;;18.15;4.68;;;;;;;;;;5007092;28;20398;-76
2021/12/21 09:06:05;;;;;;;17.35;4.53;;;;;;;;;;5008433;28;20075;-77
2021/12/21 09:08:32;;;;;;;15.50;4.32;;;;;;;;;;5010785;28;20470;-75
2021/12/21 09:11:03;;;;;;;22.80;4.53;;;;;;;;;;4997642;28;20072;-74
2021/12/21 09:13:29;;;;;;;17.45;4.43;;;;;;;;;;4974693;28;20062;-72
2021/12/21 09:15:56;;;;;;;13.60;4.65;;;;;;;;;;5007528;28;20041;-76
2021/12/21 09:18:22;;;;;;;22.33;4.75;;;;;;;;;;5009725;28;20056;-77
2021/12/21 09:20:49;;;;;;;18.73;5.95;;;;;;;;;;5011891;28;20894;-71
2021/12/21 09:23:15;;;;;;;16.17;4.70;;;;;;;;;;5008836;28;20049;-72
2021/12/21 09:25:41;;;;;;;16.85;4.63;;;;;;;;;;5011693;28;20053;-73
2021/12/21 09:28:08;;;;;;;19.63;4.90;;;;;;;;;;4997983;28;20053;-75
2021/12/21 09:30:35;;;;;;;17.08;5.45;;;;;;;;;;4999744;28;20073;-71
2021/12/21 09:33:01;;;;;;;17.88;4.90;;;;;;;;;;5011942;28;20481;-74
2021/12/21 09:35:29;;;;;;;14.48;4.35;;;;;;;;;;4992571;28;20380;-72
2021/12/21 09:37:56;;;;;;;15.35;4.00;;;;;;;;;;4998466;28;20047;-74
2021/12/21 09:40:27;;;;;;;16.33;4.75;;;;;;;;;;4994605;28;20057;-78
2021/12/21 09:42:55;;;;;;;15.57;4.15;;;;;;;;;;4994941;28;20054;-73
2021/12/21 09:45:22;;;;;;;22.08;5.25;;;;;;;;;;4995015;28;20081;-76
2021/12/21 09:47:51;;;;;;;16.77;4.80;;;;;;;;;;5012493;28;20064;-71
2021/12/21 09:50:21;;;;;;;18.77;4.80;;;;;;;;;;5013349;28;20075;-67
2021/12/21 09:52:48;;;;;;;17.33;4.70;;;;;;;;;;5013536;28;20140;-70
2021/12/21 09:55:15;;;;;;;19.50;4.85;;;;;;;;;;4995864;28;20103;-70
2021/12/21 09:57:42;;;;;;;21.73;5.25;;;;;;;;;;4994773;28;20057;-75
2021/12/21 10:00:15;;;;;;;17.10;5.22;;;;;;;;;;5013822;28;20049;-67
2021/12/21 10:02:41;;;;;;;17.17;5.43;;;;;;;;;;4991055;28;20053;-70
2021/12/21 10:05:13;;;;;;;17.17;5.22;;;;;;;;;;5018017;28;20149;-73
2021/12/21 10:07:40;;;;;;;23.10;5.85;;;;;;;;;;4999085;28;20138;-69
2021/12/21 10:10:17;;;;;;;20.67;5.38;;;;;;;;;;4995786;28;20057;-71
2021/12/21 10:12:45;;;;;;;21.52;5.55;;;;;;;;;;4992801;28;20087;-72
2021/12/21 10:15:24;;;;;;;19.20;5.88;;;;;;;;;;5016463;28;20085;-73
2021/12/21 10:17:57;;;;;;;15.95;4.88;;;;;;;;;;4995522;28;20446;-77
2021/12/21 10:20:34;;;;;;;23.75;6.00;;;;;;;;;;4997215;28;20568;-73
2021/12/21 10:23:12;;;;;;;21.15;5.93;;;;;;;;;;5014108;28;20049;-72
2021/12/21 10:26:00;;;;;;;20.85;5.53;;;;;;;;;;4993347;28;20053;-70
2021/12/21 10:28:37;;;;;;;18.15;4.82;;;;;;;;;;4989637;28;20498;-68
2021/12/21 10:31:12;;;;;;;22.05;5.85;;;;;;;;;;4996169;28;20498;-75
2021/12/21 10:33:42;;;;;;;24.17;6.22;;;;;;;;;;5019856;28;20148;-66
2021/12/21 10:36:09;;;;;;;24.17;5.85;;;;;;;;;;4998779;28;20487;-71
2021/12/21 10:38:42;;;;;;;21.80;6.18;;;;;;;;;;4989370;28;20775;-68
2021/12/21 10:41:12;;;;;;;19.75;6.13;;;;;;;;;;4989781;28;20134;-75
2021/12/21 10:43:39;;;;;;;20.00;6.43;;;;;;;;;;4994480;28;20050;-70
2021/12/21 10:46:06;;;;;;;18.17;5.55;;;;;;;;;;4972952;28;20407;-75
2021/12/21 10:48:35;;;;;;;25.38;5.97;;;;;;;;;;5008754;28;20053;-74
2021/12/21 10:51:04;;;;;;;23.02;4.95;;;;;;;;;;4991655;28;20107;-71
2021/12/21 10:53:31;;;;;;;20.10;5.72;;;;;;;;;;4973989;28;20589;-69
2021/12/21 10:56:06;;;;;;;21.63;5.70;;;;;;;;;;4992564;28;20092;-76
2021/12/21 10:58:38;;;;;;;18.67;5.15;;;;;;;;;;5010742;28;20049;-72
2021/12/21 11:01:08;;;;;;;30.15;6.60;;;;;;;;;;5010804;28;20054;-74
2021/12/21 11:03:40;;;;;;;25.10;5.85;;;;;;;;;;5005434;28;20053;-73
2021/12/21 11:06:32;;;;;;;26.25;5.53;;;;;;;;;;5008176;28;20053;-73
2021/12/21 11:08:59;;;;;;;26.92;5.60;;;;;;;;;;5008289;28;20045;-76
2021/12/21 11:11:33;;;;;;;25.25;5.82;;;;;;;;;;4985427;28;20388;-72
2021/12/21 11:14:08;;;;;;;30.27;5.60;;;;;;;;;;5009497;28;20132;-75
2021/12/21 11:16:40;;;;;;;24.92;4.97;;;;;;;;;;5009467;28;20046;-74
2021/12/21 11:19:07;;;;;;;20.60;4.72;;;;;;;;;;4991861;28;20547;-67
2021/12/21 11:21:33;;;;;;;18.02;5.07;;;;;;;;;;4987251;28;20079;-74
2021/12/21 11:24:07;;;;;;;23.40;4.72;;;;;;;;;;4988292;28;20057;-72
2021/12/21 11:26:35;;;;;;;19.08;4.90;;;;;;;;;;5006494;28;20057;-76
2021/12/21 11:29:05;;;;;;;18.30;4.88;;;;;;;;;;4977915;28;20053;-74
2021/12/21 11:31:37;;;;;;;24.92;4.82;;;;;;;;;;5007008;28;20160;-73
2021/12/21 11:34:08;;;;;;;24.63;5.22;;;;;;;;;;5008934;28;20061;-75
2021/12/21 11:39:21;;;;;;;17.20;4.57;;;;;;;;;;5005315;28;20069;-72
2021/12/21 11:41:50;;;;;;;15.60;4.10;;;;;;;;;;4982979;28;20345;-69
2021/12/21 11:44:26;;;;;;;18.70;4.93;;;;;;;;;;4987377;28;20053;-68
2021/12/21 11:47:01;;;;;;;20.95;4.55;;;;;;;;;;5008491;28;20058;-71
2021/12/21 11:49:33;;;;;;;;;;;;;;;;;;4975723;28;20056;-74
2021/12/21 11:52:14;;;;;;;17.98;4.70;;;;;;;;;;5003538;28;19964;-75
2021/12/21 11:55:07;;;;;;;15.68;4.85;;;;;;;;;;4989796;28;20399;-69
2021/12/21 11:57:41;;;;;;;13.52;4.70;;;;;;;;;;4989738;28;20056;-72
2021/12/21 12:00:08;;;;;;;16.55;4.78;;;;;;;;;;5005634;28;20045;-73
2021/12/21 12:02:34;;;;;;;19.60;5.15;;;;;;;;;;5004021;28;20141;-77
2021/12/21 12:05:01;;;;;;;27.10;5.35;;;;;;;;;;4975023;28;20053;-77
2021/12/21 12:07:27;;;;;;;23.05;4.75;;;;;;;;;;4992365;28;20053;-72
2021/12/21 12:10:10;;;;;;;17.55;4.35;;;;;;;;;;5008990;28;20057;-70
2021/12/21 12:12:36;;;;;;;21.95;5.38;;;;;;;;;;4986617;28;20060;-74
2021/12/21 12:15:08;;;;;;;22.98;5.30;;;;;;;;;;5011597;28;20055;-77
2021/12/21 12:17:53;;;;;;;25.05;5.13;;;;;;;;;;4990207;28;20099;-73
2021/12/21 12:20:27;;;;;;;19.10;5.07;;;;;;;;;;4988047;28;20069;-71
2021/12/21 12:23:02;;;;;;;;;;;;;;;;;;5004445;28;20073;-70
2021/12/21 12:25:28;;;;;;;21.58;3.90;;;;;;;;;;4988071;28;21308;-75
2021/12/21 12:27:56;;;;;;;15.88;3.80;;;;;;;;;;4991113;28;20559;-75
2021/12/21 12:30:27;;;;;;;14.50;3.72;;;;;;;;;;4991925;28;20061;-76
2021/12/21 12:33:04;;;;;;;22.95;3.97;;;;;;;;;;5005360;28;20777;-72
2021/12/21 12:35:36;;;;;;;13.18;4.07;;;;;;;;;;4972809;28;20053;-73
2021/12/21 12:38:12;;;;;;;18.30;3.58;;;;;;;;;;4993802;28;20573;-75
2021/12/21 12:40:44;;;;;;;21.10;4.20;;;;;;;;;;5010724;28;20069;-68
2021/12/21 12:43:35;;;;;;;25.25;3.83;;;;;;;;;;5008946;28;21079;-75
2021/12/21 12:46:08;;;;;;;15.68;3.60;;;;;;;;;;5009892;28;20048;-74
2021/12/21 12:48:41;;;;;;;22.60;3.50;;;;;;;;;;5008773;28;20061;-70
2021/12/21 12:51:09;;;;;;;20.77;4.72;;;;;;;;;;5008107;28;20069;-75
2021/12/21 12:53:43;;;;;;;17.05;3.92;;;;;;;;;;4988254;28;20665;-77
2021/12/21 12:56:14;;;;;;;10.05;3.30;;;;;;;;;;5008102;28;20108;-70
2021/12/21 12:58:54;;;;;;;17.23;3.53;;;;;;;;;;4990102;28;20042;-74
2021/12/21 13:01:24;;;;;;;15.27;3.95;;;;;;;;;;4974070;28;20061;-73
2021/12/21 13:03:59;;;;;;;18.52;3.63;;;;;;;;;;4993163;28;20589;-69
2021/12/21 13:06:30;;;;;;;13.20;4.10;;;;;;;;;;5006559;28;20057;-72
2021/12/21 13:08:56;;;;;;;9.73;3.30;;;;;;;;;;5008985;28;20045;-72
2021/12/21 13:11:27;;;;;;;21.35;4.03;;;;;;;;;;5001836;28;20515;-73
2021/12/21 13:13:54;;;;;;;14.85;3.85;;;;;;;;;;5006006;28;20422;-69
2021/12/21 13:16:23;;;;;;;19.40;3.63;;;;;;;;;;4989263;28;20686;-69
2021/12/21 13:19:04;;;;;;;20.60;3.67;;;;;;;;;;4988008;28;20502;-71
2021/12/21 13:21:33;;;;;;;16.23;3.95;;;;;;;;;;4983297;28;20067;-73
2021/12/21 13:24:31;;;;;;;21.92;4.00;;;;;;;;;;4989635;28;20053;-71
2021/12/21 13:27:00;;;;;;;14.98;3.55;;;;;;;;;;5007177;28;20203;-73
2021/12/21 13:29:31;;;;;;;14.50;3.28;;;;;;;;;;5007237;28;20053;-71
2021/12/21 13:32:00;;;;;;;14.95;4.13;;;;;;;;;;5002148;28;20049;-72
2021/12/21 13:34:27;;;;;;;20.42;4.20;;;;;;;;;;4987955;28;20057;-69
2021/12/21 13:36:57;;;;;;;21.33;4.10;;;;;;;;;;4988395;28;20501;-73
2021/12/21 13:39:33;;;;;;;12.77;4.20;;;;;;;;;;5005168;28;21381;-72
2021/12/21 13:42:01;;;;;;;13.80;3.78;;;;;;;;;;4985149;28;20053;-73
2021/12/21 13:44:31;;;;;;;22.10;3.95;;;;;;;;;;4989173;28;20046;-72
2021/12/21 13:47:00;;;;;;;16.65;3.38;;;;;;;;;;5007581;28;20050;-71
2021/12/21 13:49:28;;;;;;;14.48;3.65;;;;;;;;;;5008287;28;21135;-72
2021/12/21 13:51:58;;;;;;;16.95;3.55;;;;;;;;;;4965797;28;20066;-72
2021/12/21 13:54:28;;;;;;;15.93;4.03;;;;;;;;;;4987015;28;20057;-73
2021/12/21 13:56:54;;;;;;;9.15;3.42;;;;;;;;;;4986100;28;20061;-72
2021/12/21 13:59:22;;;;;;;15.35;3.45;;;;;;;;;;4987932;28;20529;-71
2021/12/21 14:01:54;;;;;;;16.52;3.40;;;;;;;;;;4980162;28;20504;-70
2021/12/21 14:04:26;;;;;;;11.35;3.38;;;;;;;;;;4986848;28;20044;-72
2021/12/21 14:06:53;;;;;;;12.18;3.35;;;;;;;;;;4986338;28;20108;-74
2021/12/21 14:09:22;;;;;;;12.43;3.03;;;;;;;;;;4984757;28;20100;-71
2021/12/21 14:11:54;;;;;;;13.35;3.40;;;;;;;;;;4982842;28;20058;-70
2021/12/21 14:14:22;;;;;;;10.75;3.13;;;;;;;;;;4987369;28;20076;-75
2021/12/21 14:16:51;;;;;;;14.13;3.65;;;;;;;;;;4985993;28;20152;-71
2021/12/21 14:19:25;;;;;;;13.73;3.47;;;;;;;;;;4971236;28;21278;-70
2021/12/21 14:21:55;;;;;;;14.27;4.03;;;;;;;;;;4984310;28;20057;-73
2021/12/21 14:24:26;;;;;;;14.85;3.30;;;;;;;;;;4989592;28;20828;-70
2021/12/21 14:27:08;;;;;;;14.38;3.38;;;;;;;;;;4988354;28;20091;-72
2021/12/21 14:29:37;;;;;;;20.42;3.85;;;;;;;;;;4990720;28;20042;-72
2021/12/21 14:34:38;;;;;;;14.30;3.37;;;;;;;;;;4990299;28;21075;-72
2021/12/21 14:37:09;;;;;;;13.60;3.28;;;;;;;;;;4990803;28;20764;-72
2021/12/21 14:39:36;;;;;;;12.65;2.92;;;;;;;;;;4990115;28;20042;-73
2021/12/21 14:42:10;;;;;;;14.40;2.88;;;;;;;;;;4987466;28;20089;-73
2021/12/21 14:44:46;;;;;;;10.95;3.03;;;;;;;;;;4989239;28;20154;-72
2021/12/21 14:47:14;;;;;;;11.98;2.60;;;;;;;;;;4974281;28;20057;-72
2021/12/21 14:49:47;;;;;;;12.27;3.10;;;;;;;;;;5008379;28;20141;-70
2021/12/21 14:52:20;;;;;;;15.48;3.88;;;;;;;;;;4986943;28;20053;-72
2021/12/21 14:54:51;;;;;;;14.00;3.20;;;;;;;;;;4989918;28;20057;-72
2021/12/21 14:57:39;;;;;;;15.85;3.65;;;;;;;;;;4986523;28;20062;-73
2021/12/21 15:00:26;;;;;;;22.00;4.10;;;;;;;;;;4970398;28;20052;-72
2021/12/21 15:02:55;;;;;;;11.40;3.30;;;;;;;;;;4981451;28;20050;-73
2021/12/21 15:05:33;;;;;;;21.83;4.13;;;;;;;;;;4990227;28;20054;-71
2021/12/21 15:08:03;;;;;;;22.13;4.38;;;;;;;;;;4988225;28;20092;-74
2021/12/21 15:10:32;;;;;;;20.30;3.75;;;;;;;;;;4988177;28;20046;-72
2021/12/21 15:12:58;;;;;;;16.77;4.45;;;;;;;;;;4985241;28;20821;-70
2021/12/21 15:15:27;;;;;;;15.60;4.38;;;;;;;;;;4987864;28;20062;-73
2021/12/21 15:17:53;;;;;;;12.23;5.35;;;;;;;;;;4970795;28;20107;-73
2021/12/21 15:20:22;;;;;;;18.27;6.78;;;;;;;;;;4990053;28;20049;-72
2021/12/21 15:22:50;;;;;;;15.18;7.43;;;;;;;;;;4985318;28;20148;-72
2021/12/21 15:25:17;;;;;;;16.00;6.88;;;;;;;;;;4988516;28;20057;-73
2021/12/21 15:27:49;;;;;;;22.77;7.72;;;;;;;;;;4988864;28;20053;-70
2021/12/21 15:30:18;;;;;;;12.88;7.25;;;;;;;;;;4990362;28;20104;-71
2021/12/21 15:32:46;;;;;;;18.55;7.70;;;;;;;;;;4982574;28;20459;-70
2021/12/21 15:35:14;;;;;;;14.57;6.88;;;;;;;;;;4988675;28;20110;-73
2021/12/21 15:37:40;;;;;;;16.13;7.80;;;;;;;;;;4989191;28;20062;-70
2021/12/21 15:40:09;;;;;;;14.25;8.20;;;;;;;;;;4987099;28;20060;-71
2021/12/21 15:42:38;;;;;;;23.88;9.75;;;;;;;;;;4983127;28;20045;-73
2021/12/21 15:45:07;;;;;;;18.05;8.73;;;;;;;;;;4988849;28;20042;-72